createdAt,value
2018-03-28T00:08:14.569Z,22.40
2018-03-28T00:18:23.256Z,22.50
2018-03-28T00:28:38.558Z,22.60
2018-03-28T00:38:47.662Z,22.50
2018-03-28T00:48:58.936Z,22.60
2018-03-28T00:59:11.189Z,22.60
2018-03-28T01:09:21.534Z,22.70
2018-03-28T01:19:33.955Z,22.70
2018-03-28T01:29:51.791Z,22.70
2018-03-28T01:40:07.334Z,22.80
2018-03-28T01:50:18.896Z,22.80
2018-03-28T02:00:28.988Z,22.80
2018-03-28T02:10:42.539Z,22.80
2018-03-28T02:21:00.872Z,22.90
2018-03-28T02:31:10.437Z,22.90
2018-03-28T02:41:20.193Z,23.00
2018-03-28T02:51:30.435Z,23.00
2018-03-28T03:01:48.854Z,23.00
2018-03-28T03:12:00.160Z,23.00
2018-03-28T03:22:13.997Z,23.00
2018-03-28T03:32:26.098Z,23.00
2018-03-28T03:42:38.889Z,23.10
2018-03-28T03:52:53.073Z,23.10
2018-03-28T04:03:07.814Z,23.20
2018-03-28T04:13:19.751Z,23.20
2018-03-28T04:23:34.527Z,23.20
2018-03-28T04:33:47.681Z,23.30
2018-03-28T04:43:57.567Z,23.40
2018-03-28T04:54:11.974Z,23.50
2018-03-28T05:04:31.656Z,23.60
2018-03-28T05:14:43.682Z,23.50
2018-03-28T05:24:56.536Z,23.70
2018-03-28T05:35:17.413Z,23.80
2018-03-28T05:45:26.814Z,23.80
2018-03-28T05:55:42.074Z,23.80
2018-03-28T06:05:56.869Z,23.80
2018-03-28T06:16:10.780Z,23.80
2018-03-28T06:26:21.591Z,23.90
2018-03-28T06:36:33.557Z,23.90
2018-03-28T06:46:50.176Z,23.90
2018-03-28T06:56:58.658Z,23.90
2018-03-28T07:07:14.877Z,24.00
2018-03-28T07:17:32.327Z,24.10
2018-03-28T07:27:44.345Z,24.10
2018-03-28T07:38:00.355Z,23.90
2018-03-28T07:48:14.700Z,23.90
2018-03-28T07:58:23.054Z,23.80
2018-03-28T08:08:34.285Z,23.70
2018-03-28T08:18:50.181Z,23.70
2018-03-28T08:29:02.780Z,23.70
2018-03-28T08:39:25.100Z,23.60
2018-03-28T08:49:42.998Z,23.60
2018-03-28T08:59:53.796Z,23.50
2018-03-28T09:10:04.886Z,23.50
2018-03-28T09:20:15.421Z,23.40
2018-03-28T09:30:31.399Z,23.40
2018-03-28T09:40:48.398Z,23.40
2018-03-28T09:50:56.903Z,23.30
2018-03-28T10:01:11.309Z,23.30
2018-03-28T10:11:21.733Z,23.40
2018-03-28T10:21:33.859Z,23.50
2018-03-28T10:31:46.738Z,23.50
2018-03-28T10:41:59.419Z,23.70
2018-03-28T10:52:16.811Z,23.70
2018-03-28T11:02:26.305Z,23.70
2018-03-28T11:12:34.729Z,23.70
2018-03-28T11:22:43.965Z,23.40
2018-03-28T11:32:52.665Z,23.20
2018-03-28T11:43:03.320Z,23.00
2018-03-28T11:53:13.816Z,22.70
2018-03-28T12:03:31.058Z,22.70
2018-03-28T12:13:51.119Z,22.80
2018-03-28T12:24:07.680Z,22.70
2018-03-28T12:34:18.398Z,22.80
2018-03-28T12:44:30.373Z,22.80
2018-03-28T12:54:43.554Z,22.90
2018-03-28T13:05:04.273Z,23.00
2018-03-28T13:15:16.310Z,22.90
2018-03-28T13:25:33.130Z,23.00
2018-03-28T13:35:46.718Z,23.00
2018-03-28T13:46:00.894Z,23.00
2018-03-28T13:56:14.584Z,23.00
2018-03-28T14:06:25.306Z,23.00
2018-03-28T14:16:41.166Z,23.00
2018-03-28T14:26:54.134Z,22.90
2018-03-28T14:37:10.105Z,22.90
2018-03-28T14:47:23.275Z,22.90
2018-03-28T14:57:38.367Z,22.90
2018-03-28T15:07:54.262Z,22.80
2018-03-28T15:18:06.315Z,22.80
2018-03-28T15:28:17.445Z,22.80
2018-03-28T15:38:33.397Z,22.70
2018-03-28T15:48:44.243Z,22.70
2018-03-28T15:59:05.020Z,22.70
2018-03-28T16:09:14.911Z,22.70
2018-03-28T16:19:27.014Z,22.70
2018-03-28T16:29:37.990Z,22.60
2018-03-28T16:39:51.163Z,22.60
2018-03-28T16:49:59.494Z,22.60
2018-03-28T17:00:11.742Z,22.60
2018-03-28T17:10:21.481Z,22.60
2018-03-28T17:20:32.709Z,22.60
2018-03-28T17:30:41.002Z,22.60
2018-03-28T17:40:50.356Z,22.50
2018-03-28T17:51:01.394Z,22.60
2018-03-28T18:01:20.551Z,22.50
2018-03-28T18:11:33.088Z,22.50
2018-03-28T18:21:43.893Z,22.50
2018-03-28T18:31:53.322Z,22.50
2018-03-28T18:42:03.657Z,22.50
2018-03-28T18:52:16.035Z,22.50
2018-03-28T19:02:25.153Z,22.50
2018-03-28T19:12:36.703Z,22.50
2018-03-28T19:22:49.078Z,22.50
2018-03-28T19:32:57.269Z,22.50
2018-03-28T19:43:12.536Z,22.40
2018-03-28T19:53:28.859Z,22.40
2018-03-28T20:03:37.790Z,22.40
2018-03-28T20:13:49.624Z,22.40
2018-03-28T20:23:57.710Z,22.40
2018-03-28T20:34:10.827Z,22.40
2018-03-28T20:44:29.525Z,22.40
2018-03-28T20:54:38.528Z,22.40
2018-03-28T21:04:54.660Z,22.40
2018-03-28T21:15:09.071Z,22.40
2018-03-28T21:25:19.438Z,22.40
2018-03-28T21:35:31.018Z,22.40
2018-03-28T21:45:48.870Z,22.40
2018-03-28T21:55:59.053Z,22.30
2018-03-28T22:06:08.782Z,22.40
2018-03-28T22:16:24.235Z,22.30
2018-03-28T22:26:36.546Z,22.40
2018-03-28T22:36:46.804Z,22.40
2018-03-28T22:47:03.871Z,22.30
2018-03-28T22:57:17.841Z,22.30
2018-03-28T23:07:32.596Z,22.30
2018-03-28T23:17:53.242Z,22.40
2018-03-28T23:38:52.203Z,22.40
2018-03-28T23:49:16.423Z,22.40
2018-03-28T23:59:32.169Z,22.40
